Time;durP1;ratioP1;P1;durP2;ratioP2;P2;SDS_P1;SDS_P2;PMS_P1;PMS_P2;Temp;Humidity;BMP_temperature;BMP_pressure;BME280_temperature;BME280_humidity;BME280_pressure;Samples;Min_cycle;Max_cycle;Signal;HPM_P1;HPM_P2
2022/04/07 00:01:20;;;;;;;3.40;3.10;;;;;;;10.42;100.00;98859.75;4915256;29;20196;-57
2022/04/07 00:03:46;;;;;;;4.03;3.67;;;;;;;10.40;100.00;98866.72;4913611;29;20197;-57
2022/04/07 00:06:11;;;;;;;3.03;2.73;;;;;;;10.43;100.00;98869.19;4911426;29;20191;-57
2022/04/07 00:08:37;;;;;;;3.73;2.83;;;;;;;10.40;100.00;98857.22;4914252;29;20224;-57
2022/04/07 00:11:03;;;;;;;3.07;2.77;;;;;;;10.41;100.00;98866.69;4917018;29;20214;-58
2022/04/07 00:13:28;;;;;;;2.63;2.43;;;;;;;10.40;100.00;98853.78;4914119;29;20208;-58
2022/04/07 00:15:56;;;;;;;2.70;2.50;;;;;;;10.37;100.00;98857.28;4916603;29;20639;-59
2022/04/07 00:18:22;;;;;;;2.50;2.30;;;;;;;10.37;100.00;98850.34;4915245;29;20280;-57
2022/04/07 00:20:48;;;;;;;2.70;2.30;;;;;;;10.36;100.00;98845.25;4912737;29;20279;-57
2022/04/07 00:23:13;;;;;;;1.93;1.60;;;;;;;10.35;100.00;98828.91;4912028;29;20227;-57
2022/04/07 00:25:38;;;;;;;2.57;1.53;;;;;;;10.35;100.00;98828.03;4915090;29;20187;-57
2022/04/07 00:28:04;;;;;;;1.83;1.47;;;;;;;10.33;100.00;98819.47;4915159;29;20538;-58
2022/04/07 00:30:30;;;;;;;1.27;1.17;;;;;;;10.35;100.00;98820.28;4915126;29;20676;-58
2022/04/07 00:32:55;;;;;;;1.47;1.03;;;;;;;10.35;100.00;98815.97;4914160;29;20192;-56
2022/04/07 00:35:24;;;;;;;1.30;1.13;;;;;;;10.35;100.00;98805.63;4913514;29;20185;-57
2022/04/07 00:37:50;;;;;;;1.87;1.00;;;;;;;10.36;100.00;98809.88;4911478;29;20192;-57
2022/04/07 00:40:15;;;;;;;0.73;0.73;;;;;;;10.36;100.00;98804.69;4913415;29;20608;-59
2022/04/07 00:42:48;;;;;;;0.80;0.73;;;;;;;10.40;100.00;98799.47;4917712;29;20716;-58
2022/04/07 00:45:18;;;;;;;1.93;0.77;;;;;;;10.42;100.00;98797.69;4923849;29;20196;-58
2022/04/07 00:47:45;;;;;;;1.00;0.60;;;;;;;10.47;100.00;98788.03;4924909;29;20218;-58
2022/04/07 00:50:12;;;;;;;0.90;0.90;;;;;;;10.47;100.00;98788.88;4915335;29;20204;-57
2022/04/07 00:52:41;;;;;;;0.80;0.80;;;;;;;10.53;100.00;98782.66;4916039;29;20192;-57
2022/04/07 00:55:09;;;;;;;0.80;0.70;;;;;;;10.53;100.00;98772.31;4912983;29;20196;-57
2022/04/07 00:57:36;;;;;;;1.37;1.00;;;;;;;10.50;100.00;98773.25;4915899;29;20793;-57
2022/04/07 01:00:03;;;;;;;1.07;0.90;;;;;;;10.54;100.00;98762.81;4914722;29;20219;-59
2022/04/07 01:02:29;;;;;;;1.07;0.97;;;;;;;10.46;100.00;98763.06;4917664;29;20196;-58
2022/04/07 01:04:55;;;;;;;1.00;0.90;;;;;;;10.34;100.00;98759.09;4914725;29;20192;-56
2022/04/07 01:07:21;;;;;;;1.30;1.20;;;;;;;10.22;100.00;98758.63;4915553;29;20236;-58
2022/04/07 01:09:46;;;;;;;0.87;0.70;;;;;;;10.20;100.00;98746.66;4919178;29;20287;-57
2022/04/07 01:12:11;;;;;;;1.80;0.70;;;;;;;10.17;100.00;98760.50;4913615;29;20531;-57
2022/04/07 01:14:59;;;;;;;0.73;0.73;;;;;;;10.16;100.00;98745.88;4913592;29;20322;-58
2022/04/07 01:17:28;;;;;;;1.73;0.70;;;;;;;10.23;100.00;98743.94;4924583;29;20220;-56
2022/04/07 01:19:53;;;;;;;0.90;0.70;;;;;;;10.17;100.00;98746.75;4919967;29;20227;-57
2022/04/07 01:22:23;;;;;;;0.60;0.60;;;;;;;10.09;100.00;98746.97;4913716;29;20282;-57
2022/04/07 01:24:49;;;;;;;1.20;0.90;;;;;;;10.03;100.00;98750.59;4915899;29;20371;-58
2022/04/07 01:27:16;;;;;;;1.27;0.77;;;;;;;10.01;100.00;98742.06;4914767;29;20191;-56
2022/04/07 01:29:42;;;;;;;0.93;0.73;;;;;;;10.01;100.00;98744.63;4915575;29;20291;-57
2022/04/07 01:32:10;;;;;;;0.70;0.70;;;;;;;10.05;100.00;98747.97;4912162;29;20181;-55
2022/04/07 01:34:36;;;;;;;0.60;0.60;;;;;;;10.15;100.00;98740.75;4914286;29;20554;-57
2022/04/07 01:37:02;;;;;;;0.67;0.63;;;;;;;10.16;100.00;98743.28;4915337;29;20215;-58
2022/04/07 01:39:28;;;;;;;1.73;0.70;;;;;;;10.24;100.00;98737.88;4914055;29;20375;-56
2022/04/07 01:41:54;;;;;;;1.40;0.90;;;;;;;10.24;100.00;98737.88;4914781;29;20192;-56
2022/04/07 01:44:22;;;;;;;0.70;0.70;;;;;;;10.23;100.00;98746.53;4917025;29;20239;-58
2022/04/07 01:46:48;;;;;;;0.83;0.80;;;;;;;10.26;100.00;98738.66;4912395;29;20180;-59
2022/04/07 01:49:14;;;;;;;3.03;0.90;;;;;;;10.29;100.00;98732.53;4909750;29;20227;-57
2022/04/07 01:51:42;;;;;;;3.63;1.07;;;;;;;10.31;100.00;98728.16;4914272;29;20540;-57
2022/04/07 01:54:11;;;;;;;1.10;1.00;;;;;;;10.25;100.00;98729.22;4914395;29;20255;-58
2022/04/07 01:56:40;;;;;;;1.83;0.90;;;;;;;10.24;100.00;98731.88;4914373;29;20212;-57
2022/04/07 01:59:08;;;;;;;1.97;0.87;;;;;;;10.17;100.00;98736.41;4915984;29;20220;-58
2022/04/07 02:01:34;;;;;;;1.10;0.90;;;;;;;10.11;100.00;98728.81;4928860;29;20685;-57
2022/04/07 02:03:59;;;;;;;0.90;0.80;;;;;;;10.06;100.00;98739.31;4917416;29;20228;-57
2022/04/07 02:06:25;;;;;;;0.90;0.70;;;;;;;10.01;100.00;98718.78;4912730;29;20203;-58
2022/04/07 02:08:50;;;;;;;1.20;1.00;;;;;;;9.99;100.00;98715.41;4915116;29;20184;-57
2022/04/07 02:11:16;;;;;;;1.97;0.93;;;;;;;9.98;100.00;98726.63;4918680;29;20192;-57
2022/04/07 02:13:41;;;;;;;2.20;1.17;;;;;;;10.01;100.00;98717.94;4912338;29;20251;-57
2022/04/07 02:16:10;;;;;;;2.20;1.00;;;;;;;9.97;100.00;98714.59;4916967;29;20200;-57
2022/04/07 02:18:38;;;;;;;1.00;0.90;;;;;;;9.93;100.00;98707.00;4916360;29;20268;-58
2022/04/07 02:21:04;;;;;;;1.20;0.90;;;;;;;9.92;100.00;98703.56;4912605;29;20272;-58
2022/04/07 02:23:30;;;;;;;1.13;0.80;;;;;;;9.93;100.00;98701.84;4910843;29;20203;-58
2022/04/07 02:25:55;;;;;;;1.77;1.10;;;;;;;9.89;100.00;98706.28;4911260;29;20196;-57
2022/04/07 02:28:21;;;;;;;1.97;1.10;;;;;;;9.90;100.00;98702.78;4910398;29;20199;-56
2022/04/07 02:30:47;;;;;;;1.17;1.07;;;;;;;9.89;100.00;98695.94;4910486;29;20287;-57
2022/04/07 02:33:13;;;;;;;1.60;0.90;;;;;;;9.90;100.00;98701.03;4916244;29;20672;-56
2022/04/07 02:35:39;;;;;;;1.50;1.00;;;;;;;9.96;100.00;98700.00;4909792;29;20210;-57
2022/04/07 02:38:04;;;;;;;2.30;0.93;;;;;;;9.96;100.00;98689.66;4915764;29;20192;-57
2022/04/07 02:40:30;;;;;;;1.30;1.07;;;;;;;9.95;100.00;98689.72;4905725;29;20275;-58
2022/04/07 02:42:55;;;;;;;1.07;0.97;;;;;;;9.94;100.00;98688.84;4913003;29;20682;-57
2022/04/07 02:45:21;;;;;;;1.10;1.00;;;;;;;9.98;100.00;98684.47;4913810;29;20287;-56
2022/04/07 02:47:46;;;;;;;1.37;1.03;;;;;;;9.99;100.00;98678.38;4914256;29;20550;-57
2022/04/07 02:50:12;;;;;;;2.60;1.20;;;;;;;10.01;100.00;98680.03;4909231;29;20207;-58
2022/04/07 02:52:37;;;;;;;0.90;0.80;;;;;;;10.04;100.00;98679.06;4914005;29;20295;-57
2022/04/07 02:55:04;;;;;;;1.97;1.00;;;;;;;10.00;100.00;98668.00;4911523;29;20228;-58
2022/04/07 02:57:31;;;;;;;0.80;0.80;;;;;;;9.99;100.00;98663.72;4918381;29;20215;-57
2022/04/07 02:59:59;;;;;;;1.23;0.87;;;;;;;10.03;100.00;98649.81;4910626;29;20211;-58
2022/04/07 03:02:25;;;;;;;0.73;0.70;;;;;;;10.00;100.00;98652.50;4914099;29;20194;-58
2022/04/07 03:04:51;;;;;;;1.13;0.73;;;;;;;9.96;100.00;98648.31;4913075;29;20196;-58
2022/04/07 03:07:17;;;;;;;1.87;0.80;;;;;;;9.97;100.00;98642.25;4909630;29;20192;-56
2022/04/07 03:09:42;;;;;;;0.80;0.63;;;;;;;9.99;100.00;98644.78;4916729;29;20204;-58
2022/04/07 03:12:08;;;;;;;1.30;0.83;;;;;;;9.96;100.00;98634.56;4914522;29;20188;-57
2022/04/07 03:14:34;;;;;;;1.77;0.80;;;;;;;10.01;100.00;98636.09;4913613;29;20189;-56
2022/04/07 03:16:59;;;;;;;2.53;0.90;;;;;;;9.99;100.00;98624.97;4914244;29;20212;-57
2022/04/07 03:19:25;;;;;;;1.30;0.70;;;;;;;10.02;100.00;98634.34;4914327;29;20248;-56
2022/04/07 03:21:50;;;;;;;2.00;0.73;;;;;;;9.98;100.00;98619.84;4910554;29;20259;-58
2022/04/07 03:24:15;;;;;;;1.63;0.93;;;;;;;9.99;100.00;98624.97;4914938;29;20191;-58
2022/04/07 03:26:41;;;;;;;0.70;0.70;;;;;;;9.98;100.00;98623.25;4911330;29;20200;-57
2022/04/07 03:29:06;;;;;;;1.57;0.80;;;;;;;9.99;100.00;98621.50;4910457;29;20212;-58
2022/04/07 03:31:32;;;;;;;1.10;0.80;;;;;;;10.02;100.00;98621.41;4915032;29;20700;-58
2022/04/07 03:33:57;;;;;;;0.80;0.70;;;;;;;10.03;100.00;98605.88;4914787;29;20203;-57
2022/04/07 03:36:23;;;;;;;1.20;0.90;;;;;;;10.06;100.00;98621.25;4911237;29;20219;-57
2022/04/07 03:38:51;;;;;;;1.23;1.00;;;;;;;10.11;100.00;98609.94;4912434;29;20235;-58
2022/04/07 03:41:17;;;;;;;1.33;0.80;;;;;;;10.13;100.00;98608.13;4925858;29;20187;-58
2022/04/07 03:43:43;;;;;;;2.53;1.10;;;;;;;10.05;100.00;98598.91;4912907;29;20189;-58
2022/04/07 03:46:09;;;;;;;1.57;0.93;;;;;;;10.09;100.00;98607.41;4916901;29;20226;-58
2022/04/07 03:48:35;;;;;;;1.63;0.90;;;;;;;10.10;100.00;98600.47;4913963;29;20188;-58
2022/04/07 03:51:00;;;;;;;1.87;1.40;;;;;;;10.12;100.00;98603.84;4916380;29;20211;-58
2022/04/07 03:53:26;;;;;;;1.37;1.10;;;;;;;10.10;100.00;98595.31;4915160;29;20196;-57
2022/04/07 03:55:51;;;;;;;1.50;1.20;;;;;;;10.15;100.00;98594.25;4913427;29;20212;-56
2022/04/07 03:58:16;;;;;;;1.93;1.00;;;;;;;10.13;100.00;98580.56;4913781;29;20187;-57
2022/04/07 04:00:42;;;;;;;2.20;1.30;;;;;;;10.14;100.00;98589.16;4916809;29;20303;-57
2022/04/07 04:03:07;;;;;;;3.40;3.00;;;;;;;10.12;100.00;98572.84;4914850;29;20199;-57
2022/04/07 04:05:33;;;;;;;2.50;2.30;;;;;;;10.13;100.00;98582.28;4914030;29;20197;-57
2022/04/07 04:07:59;;;;;;;3.33;3.03;;;;;;;10.12;100.00;98570.25;4911540;29;20247;-56
2022/04/07 04:10:25;;;;;;;8.33;7.63;;;;;;;10.07;100.00;98566.09;4911134;29;20212;-57
2022/04/07 04:12:50;;;;;;;10.67;9.67;;;;;;;10.07;100.00;98563.50;4914667;29;20196;-56
2022/04/07 04:15:16;;;;;;;5.53;5.03;;;;;;;10.07;100.00;98562.66;4930297;29;20219;-57
2022/04/07 04:17:41;;;;;;;3.67;3.37;;;;;;;10.02;100.00;98575.75;4914112;29;20216;-56
2022/04/07 04:20:07;;;;;;;5.00;4.60;;;;;;;10.01;100.00;98568.91;4911272;29;20307;-56
2022/04/07 04:22:33;;;;;;;12.00;10.80;;;;;;;9.98;100.00;98563.00;4916613;29;20196;-57
2022/04/07 04:24:58;;;;;;;13.63;12.30;;;;;;;9.96;100.00;98557.03;4925047;29;20189;-57
2022/04/07 04:27:24;;;;;;;14.30;13.00;;;;;;;9.96;100.00;98569.97;4909826;29;20183;-57
2022/04/07 04:29:49;;;;;;;3.90;2.97;;;;;;;10.00;100.00;98556.00;4921820;29;20247;-57
2022/04/07 04:32:15;;;;;;;9.73;8.87;;;;;;;10.02;100.00;98573.16;4933688;29;20198;-58
2022/04/07 04:34:40;;;;;;;11.63;9.80;;;;;;;10.01;100.00;98568.91;4931469;29;20263;-57
2022/04/07 04:37:05;;;;;;;8.10;7.20;;;;;;;9.98;100.00;98558.66;4915293;29;20307;-55
2022/04/07 04:39:31;;;;;;;4.50;4.10;;;;;;;9.96;100.00;98547.53;4920112;29;20207;-56
2022/04/07 04:41:56;;;;;;;16.10;14.73;;;;;;;9.92;100.00;98530.44;4929680;29;20219;-56
2022/04/07 04:44:21;;;;;;;5.87;5.37;;;;;;;9.86;100.00;98547.00;4936006;29;20192;-57
2022/04/07 04:46:47;;;;;;;5.70;5.20;;;;;;;9.84;100.00;98548.78;4921216;29;20185;-58
2022/04/07 04:49:12;;;;;;;3.03;2.57;;;;;;;9.76;100.00;98551.63;4918830;29;20307;-57
2022/04/07 04:51:37;;;;;;;2.43;2.23;;;;;;;9.71;100.00;98545.78;4919786;29;20672;-59
2022/04/07 04:54:03;;;;;;;2.63;1.03;;;;;;;9.68;100.00;98538.13;4921721;29;20192;-57
2022/04/07 04:56:28;;;;;;;1.57;1.00;;;;;;;9.73;100.00;98545.72;4911219;29;20211;-56
2022/04/07 04:58:54;;;;;;;1.10;1.00;;;;;;;9.80;100.00;98541.19;4917890;29;20198;-57
2022/04/07 05:01:20;;;;;;;1.20;1.00;;;;;;;9.79;100.00;98535.19;4919542;29;20242;-57
2022/04/07 05:03:45;;;;;;;0.97;0.87;;;;;;;9.74;100.00;98527.59;4927335;29;20227;-57
2022/04/07 05:06:10;;;;;;;2.80;1.10;;;;;;;9.72;100.00;98528.53;4922338;29;20210;-57
2022/04/07 05:08:36;;;;;;;1.00;0.90;;;;;;;9.69;100.00;98519.16;4918677;29;20191;-58
2022/04/07 05:11:01;;;;;;;1.70;1.13;;;;;;;9.70;100.00;98526.03;4923569;29;20208;-56
2022/04/07 05:13:27;;;;;;;1.37;1.00;;;;;;;9.75;100.00;98513.81;4921547;29;20328;-58
2022/04/07 05:15:52;;;;;;;1.40;1.00;;;;;;;9.77;100.00;98522.31;4924338;29;20200;-57
2022/04/07 05:18:17;;;;;;;0.73;0.63;;;;;;;9.82;100.00;98517.00;4919215;29;20187;-57
2022/04/07 05:20:43;;;;;;;1.53;0.90;;;;;;;9.93;100.00;98526.13;4914187;29;20250;-57
2022/04/07 05:23:08;;;;;;;1.40;0.90;;;;;;;10.02;100.00;98505.97;4912981;29;20876;-57
2022/04/07 05:25:33;;;;;;;0.90;0.80;;;;;;;10.14;100.00;98504.69;4921082;29;20680;-56
2022/04/07 05:27:59;;;;;;;1.10;0.87;;;;;;;10.22;100.00;98494.06;4921204;29;20247;-58
2022/04/07 05:30:24;;;;;;;0.90;0.90;;;;;;;10.33;100.00;98481.59;4925944;29;20205;-58
2022/04/07 05:32:50;;;;;;;0.80;0.60;;;;;;;10.55;100.00;98465.28;4922227;29;20279;-57
2022/04/07 05:35:18;;;;;;;0.90;0.73;;;;;;;10.74;100.00;98452.47;4920312;29;20190;-58
2022/04/07 05:37:43;;;;;;;0.70;0.60;;;;;;;10.73;100.00;98462.91;4906697;29;20579;-58
2022/04/07 05:40:11;;;;;;;1.77;0.63;;;;;;;10.79;100.00;98467.84;4914448;29;20228;-58
2022/04/07 05:42:36;;;;;;;1.70;0.77;;;;;;;11.03;100.00;98465.19;4921719;29;20197;-57
2022/04/07 05:45:03;;;;;;;0.60;0.60;;;;;;;11.33;100.00;98463.09;4915270;29;20196;-57
2022/04/07 05:47:28;;;;;;;0.70;0.50;;;;;;;11.43;100.00;98461.81;4911724;29;20300;-58
2022/04/07 05:49:55;;;;;;;0.60;0.60;;;;;;;11.34;100.00;98453.56;4914130;29;20696;-58
2022/04/07 05:52:20;;;;;;;2.33;0.60;;;;;;;11.15;100.00;98454.31;4909084;29;20321;-56
2022/04/07 05:54:46;;;;;;;4.83;2.50;;;;;;;11.06;100.00;98455.53;4910817;29;20647;-57
2022/04/07 05:57:11;;;;;;;0.90;0.70;;;;;;;11.02;100.00;98454.00;4907435;29;21884;-57
2022/04/07 05:59:37;;;;;;;0.70;0.60;;;;;;;11.00;100.00;98458.41;4915894;29;20627;-57
2022/04/07 06:02:03;;;;;;;3.20;0.53;;;;;;;11.03;100.00;98476.41;4926700;29;20183;-56
2022/04/07 06:04:28;;;;;;;1.53;0.60;;;;;;;10.98;100.00;98473.97;4922053;29;20189;-58
2022/04/07 06:06:53;;;;;;;1.40;0.50;;;;;;;10.92;100.00;98469.06;4912869;29;20181;-56
2022/04/07 06:09:19;;;;;;;1.73;0.60;;;;;;;10.87;100.00;98462.38;4925019;29;20584;-57
2022/04/07 06:11:44;;;;;;;1.27;0.50;;;;;;;10.87;100.00;98462.38;4928972;29;20413;-57
2022/04/07 06:14:09;;;;;;;0.90;0.60;;;;;;;10.87;100.00;98459.78;4929004;29;20187;-56
2022/04/07 06:16:35;;;;;;;1.20;0.40;;;;;;;10.81;100.00;98453.94;4919636;29;20358;-57
2022/04/07 06:19:00;;;;;;;1.00;0.60;;;;;;;10.80;100.00;98449.66;4913595;29;20198;-56
2022/04/07 06:21:29;;;;;;;0.60;0.50;;;;;;;10.77;100.00;98457.53;4921879;29;20255;-56
2022/04/07 06:23:55;;;;;;;1.27;0.47;;;;;;;10.76;100.00;98449.84;4912916;29;20222;-57
2022/04/07 06:26:20;;;;;;;1.27;0.70;;;;;;;10.76;100.00;98431.75;4904360;29;20347;-57
2022/04/07 06:28:46;;;;;;;0.70;0.50;;;;;;;10.83;100.00;98441.78;4913907;29;20199;-56
2022/04/07 06:31:11;;;;;;;1.37;0.60;;;;;;;10.82;100.00;98418.53;4926676;29;20199;-57
2022/04/07 06:33:37;;;;;;;1.40;0.60;;;;;;;10.80;100.00;98418.63;4924026;29;20354;-57
2022/04/07 06:36:04;;;;;;;1.23;0.43;;;;;;;10.80;100.00;98415.19;4917755;29;20211;-56
2022/04/07 06:38:33;;;;;;;2.10;0.50;;;;;;;10.79;100.00;98406.59;4922815;29;20298;-58
2022/04/07 06:40:59;;;;;;;0.57;0.50;;;;;;;10.82;100.00;98401.28;4916022;29;20216;-55
2022/04/07 06:43:25;;;;;;;0.63;0.63;;;;;;;10.78;100.00;98376.44;4922271;29;20192;-57
2022/04/07 06:45:50;;;;;;;1.43;0.50;;;;;;;10.79;100.00;98378.13;4919388;29;20279;-56
2022/04/07 06:48:16;;;;;;;0.80;0.57;;;;;;;10.80;100.00;98378.97;4928287;29;20665;-57
2022/04/07 06:50:44;;;;;;;0.90;0.50;;;;;;;10.78;100.00;98371.25;4925501;29;20212;-56
2022/04/07 06:53:09;;;;;;;1.70;0.53;;;;;;;10.79;100.00;98367.78;4909669;29;20339;-55
2022/04/07 06:55:35;;;;;;;2.40;0.40;;;;;;;10.82;100.00;98370.25;4939888;29;20274;-57
2022/04/07 06:58:02;;;;;;;1.70;0.50;;;;;;;10.92;100.00;98368.13;4930757;29;20226;-57
2022/04/07 07:00:30;;;;;;;1.40;0.50;;;;;;;11.03;100.00;98362.50;4920440;29;20212;-58
2022/04/07 07:02:57;;;;;;;0.53;0.50;;;;;;;11.08;100.00;98362.31;4914360;29;20661;-55
2022/04/07 07:05:24;;;;;;;1.70;0.40;;;;;;;11.07;100.00;98352.84;4911456;29;20288;-56
2022/04/07 07:07:49;;;;;;;1.30;0.60;;;;;;;11.08;100.00;98351.94;4914817;29;20181;-55
2022/04/07 07:10:28;;;;;;;3.60;0.70;;;;;;;11.04;100.00;98345.22;4927462;29;20211;-57
2022/04/07 07:12:54;;;;;;;1.60;0.73;;;;;;;11.03;100.00;98353.88;4922583;29;20229;-58
2022/04/07 07:15:23;;;;;;;1.03;0.50;;;;;;;11.17;100.00;98345.53;4923917;29;20212;-57
2022/04/07 07:17:49;;;;;;;1.30;0.70;;;;;;;11.26;100.00;98335.63;4918718;29;20573;-57
2022/04/07 07:20:14;;;;;;;0.87;0.60;;;;;;;11.33;100.00;98331.03;4921861;29;20224;-58
2022/04/07 07:22:41;;;;;;;1.97;0.80;;;;;;;11.36;100.00;98327.47;4918947;29;20258;-58
2022/04/07 07:25:09;;;;;;;1.97;0.50;;;;;;;11.29;100.00;98317.34;4921745;29;20199;-57
2022/04/07 07:27:40;;;;;;;1.47;0.57;;;;;;;11.29;100.00;98309.59;4922184;29;20184;-56
2022/04/07 07:30:11;;;;;;;1.90;1.00;;;;;;;11.33;100.00;98312.91;4926145;29;20208;-57
2022/04/07 07:32:40;;;;;;;1.03;0.50;;;;;;;11.32;100.00;98303.44;4925398;29;20667;-57
2022/04/07 07:35:08;;;;;;;0.60;0.40;;;;;;;11.34;100.00;98269.72;4928402;29;20187;-55
2022/04/07 07:37:34;;;;;;;0.80;0.57;;;;;;;11.38;100.00;98292.81;4915733;29;20295;-55
2022/04/07 07:40:07;;;;;;;1.00;0.50;;;;;;;11.47;100.00;98281.19;4929368;29;20299;-56
2022/04/07 07:42:33;;;;;;;2.33;0.63;;;;;;;11.58;100.00;98280.72;4915429;29;20187;-57
2022/04/07 07:44:59;;;;;;;1.57;0.77;;;;;;;11.71;100.00;98281.00;4924942;29;20195;-59
2022/04/07 07:47:24;;;;;;;2.50;0.90;;;;;;;11.93;100.00;98256.66;4919307;29;20184;-57
2022/04/07 07:49:50;;;;;;;2.20;0.60;;;;;;;12.07;100.00;98249.09;4922627;29;20245;-56
2022/04/07 07:52:15;;;;;;;2.00;0.50;;;;;;;12.24;100.00;98266.47;4925163;29;20187;-56
2022/04/07 07:54:40;;;;;;;1.13;0.60;;;;;;;12.29;100.00;98251.50;4921325;29;20223;-58
2022/04/07 07:57:06;;;;;;;0.83;0.63;;;;;;;12.26;100.00;98259.41;4919017;29;20228;-57
2022/04/07 07:59:31;;;;;;;1.53;0.63;;;;;;;12.28;100.00;98243.81;4916470;29;20267;-57
2022/04/07 08:01:57;;;;;;;1.27;0.60;;;;;;;12.38;100.00;98234.66;4921871;29;20236;-57
2022/04/07 08:04:22;;;;;;;1.80;0.70;;;;;;;12.52;100.00;98210.63;4915093;29;20541;-57
2022/04/07 08:06:47;;;;;;;1.07;0.50;;;;;;;12.68;100.00;98222.81;4922170;29;20189;-57
2022/04/07 08:09:14;;;;;;;2.07;0.70;;;;;;;12.95;100.00;98225.75;4926450;29;20240;-59
2022/04/07 08:11:41;;;;;;;1.33;0.77;;;;;;;13.32;100.00;98202.19;4922703;29;20189;-57
2022/04/07 08:14:07;;;;;;;4.40;0.97;;;;;;;13.71;99.42;98204.41;4923115;29;20187;-57
2022/04/07 08:16:33;;;;;;;2.27;0.80;;;;;;;14.10;96.41;98209.22;4915971;29;20213;-56
2022/04/07 08:18:58;;;;;;;1.87;0.40;;;;;;;14.35;95.71;98197.41;4916027;29;20193;-55
2022/04/07 08:21:24;;;;;;;0.87;0.53;;;;;;;14.68;94.43;98197.19;4925889;29;20264;-57
2022/04/07 08:23:49;;;;;;;0.87;0.40;;;;;;;14.85;92.19;98209.22;4933636;29;20270;-58
2022/04/07 08:26:15;;;;;;;1.53;0.60;;;;;;;14.90;90.98;98190.72;4926740;29;20213;-57
2022/04/07 08:28:41;;;;;;;1.23;0.60;;;;;;;14.92;90.26;98204.50;4927960;29;20177;-57
2022/04/07 08:31:07;;;;;;;2.97;0.50;;;;;;;14.80;89.00;98206.06;4928285;29;20224;-56
2022/04/07 08:33:32;;;;;;;1.10;0.40;;;;;;;14.51;90.50;98200.78;4920695;29;20260;-57
2022/04/07 08:35:58;;;;;;;0.97;0.80;;;;;;;14.17;91.32;98176.72;4917988;29;20612;-57
2022/04/07 08:38:23;;;;;;;2.13;0.60;;;;;;;13.99;90.57;98174.25;4919218;29;21252;-58
2022/04/07 08:40:53;;;;;;;1.07;0.40;;;;;;;13.99;91.21;98176.03;4944750;29;20219;-58
2022/04/07 08:43:19;;;;;;;1.53;0.60;;;;;;;14.17;92.56;98176.72;4925766;29;20210;-57
2022/04/07 08:45:44;;;;;;;0.40;0.40;;;;;;;14.39;92.12;98162.47;4914393;29;20230;-57
2022/04/07 08:48:12;;;;;;;0.40;0.40;;;;;;;14.38;90.90;98179.84;4926232;29;20262;-57
2022/04/07 08:50:40;;;;;;;1.97;0.50;;;;;;;14.20;92.55;98176.53;4923728;29;20568;-56
2022/04/07 08:53:06;;;;;;;1.27;0.60;;;;;;;14.09;94.86;98194.53;4930080;29;20247;-57
2022/04/07 08:55:33;;;;;;;0.93;0.47;;;;;;;14.07;95.88;98192.00;4920908;29;20277;-57
2022/04/07 08:57:59;;;;;;;1.20;0.60;;;;;;;14.15;96.43;98175.97;4914052;29;20242;-57
2022/04/07 09:00:24;;;;;;;0.53;0.40;;;;;;;14.05;95.00;98201.69;4919621;29;20472;-57
2022/04/07 09:02:52;;;;;;;2.77;0.50;;;;;;;13.86;96.17;98199.25;4923204;29;20193;-57
2022/04/07 09:05:24;;;;;;;1.33;0.50;;;;;;;13.77;98.22;98189.41;4914200;29;20218;-58
2022/04/07 09:07:51;;;;;;;2.33;1.00;;;;;;;13.80;98.89;98181.44;4923089;29;20189;-58
2022/04/07 09:10:21;;;;;;;2.60;0.70;;;;;;;13.89;98.96;98193.91;4923909;29;20590;-57
2022/04/07 09:12:46;;;;;;;1.20;0.50;;;;;;;14.01;99.56;98190.59;4930963;29;20201;-57
2022/04/07 09:15:13;;;;;;;1.33;0.57;;;;;;;14.10;99.93;98186.63;4918591;29;20559;-57
2022/04/07 09:18:01;;;;;;;1.53;0.70;;;;;;;14.18;99.76;98174.03;4917067;29;20211;-59
2022/04/07 09:20:27;;;;;;;1.10;0.70;;;;;;;14.24;100.00;98190.22;4908196;29;20261;-56
2022/04/07 09:22:57;;;;;;;0.80;0.47;;;;;;;14.17;100.00;98187.13;4922749;29;20234;-57
2022/04/07 09:25:22;;;;;;;0.93;0.57;;;;;;;14.02;100.00;98188.84;4921841;29;20278;-57
2022/04/07 09:27:51;;;;;;;1.27;0.70;;;;;;;13.94;100.00;98186.69;4920795;29;20191;-56
2022/04/07 09:30:17;;;;;;;1.43;0.57;;;;;;;13.95;100.00;98158.91;4917938;29;20553;-59
2022/04/07 09:32:44;;;;;;;2.97;0.93;;;;;;;14.12;100.00;98142.34;4919164;29;20210;-55
2022/04/07 09:35:11;;;;;;;1.33;0.53;;;;;;;14.22;99.02;98153.88;4922934;29;20201;-57
2022/04/07 09:37:38;;;;;;;2.00;0.70;;;;;;;14.20;99.38;98142.72;4926708;29;20217;-56
2022/04/07 09:40:10;;;;;;;1.30;0.50;;;;;;;14.15;98.44;98144.75;4923199;29;20780;-57
2022/04/07 09:42:36;;;;;;;0.73;0.50;;;;;;;14.03;97.19;98128.13;4912814;29;20226;-58
2022/04/07 09:45:04;;;;;;;1.27;0.60;;;;;;;13.98;96.99;98112.78;4915806;29;20234;-57
2022/04/07 09:47:40;;;;;;;1.00;0.60;;;;;;;13.89;96.96;98109.88;4924946;29;20214;-57
2022/04/07 09:50:08;;;;;;;2.17;0.60;;;;;;;13.78;96.80;98102.69;4918771;29;20218;-57
2022/04/07 09:52:40;;;;;;;0.60;0.40;;;;;;;13.66;96.44;98094.66;4917601;29;20203;-56
2022/04/07 09:55:08;;;;;;;0.80;0.50;;;;;;;13.56;96.53;98096.09;4918846;29;20206;-56
2022/04/07 09:57:34;;;;;;;0.90;0.50;;;;;;;13.59;96.28;98080.34;4910799;29;20222;-57
2022/04/07 10:00:03;;;;;;;2.07;0.70;;;;;;;13.57;96.24;98076.97;4913839;29;20774;-57
2022/04/07 10:02:30;;;;;;;0.50;0.40;;;;;;;13.72;95.21;98085.69;4922190;29;20196;-56
2022/04/07 10:04:56;;;;;;;0.43;0.40;;;;;;;13.97;94.28;98086.84;4929350;29;20260;-57
2022/04/07 10:07:24;;;;;;;0.70;0.50;;;;;;;14.12;94.02;98078.16;4917118;29;20190;-57
2022/04/07 10:09:51;;;;;;;2.07;0.40;;;;;;;14.46;93.31;98073.53;4923308;29;20287;-57
2022/04/07 10:12:18;;;;;;;0.83;0.40;;;;;;;14.85;91.30;98059.94;4926288;29;20627;-57
2022/04/07 10:14:48;;;;;;;0.67;0.30;;;;;;;15.16;90.97;98051.06;4916772;29;20198;-56
2022/04/07 10:17:14;;;;;;;0.30;0.30;;;;;;;15.52;89.59;98049.59;4913731;29;20250;-59
2022/04/07 10:19:48;;;;;;;1.30;0.43;;;;;;;15.55;88.09;98052.00;4915700;29;20701;-58
2022/04/07 10:22:26;;;;;;;2.60;0.30;;;;;;;15.41;87.48;98033.81;4924609;29;20589;-57
2022/04/07 10:24:56;;;;;;;1.27;0.63;;;;;;;15.50;87.49;98041.03;4926936;29;20227;-58
2022/04/07 10:27:25;;;;;;;1.40;0.30;;;;;;;15.59;86.84;98026.56;4916113;29;20214;-57
2022/04/07 10:30:10;;;;;;;2.73;0.63;;;;;;;15.68;86.12;98041.63;4928399;29;20290;-58
2022/04/07 10:32:39;;;;;;;1.33;0.50;;;;;;;15.54;84.48;98039.91;4920664;29;20239;-57
2022/04/07 10:35:05;;;;;;;3.00;0.60;;;;;;;15.50;86.28;98024.56;4917604;29;20233;-58
2022/04/07 10:37:47;;;;;;;1.50;0.50;;;;;;;15.44;86.53;98004.13;4923814;29;20218;-58
2022/04/07 10:40:36;;;;;;;0.50;0.40;;;;;;;15.47;86.78;98020.41;4922946;29;20213;-56
2022/04/07 10:43:05;;;;;;;0.43;0.33;;;;;;;15.51;86.37;98002.78;4919577;29;20850;-57
2022/04/07 10:45:32;;;;;;;4.53;0.40;;;;;;;15.36;86.30;98009.81;4919408;29;20192;-58
2022/04/07 10:48:35;;;;;;;1.47;0.47;;;;;;;15.26;86.09;98011.38;4919812;29;20206;-57
2022/04/07 10:51:02;;;;;;;1.73;0.53;;;;;;;15.40;86.12;98000.88;4913895;29;20227;-58
2022/04/07 10:53:59;;;;;;;0.50;0.40;;;;;;;15.73;86.51;97999.59;4920526;29;20186;-57
2022/04/07 10:56:34;;;;;;;0.70;0.47;;;;;;;15.76;84.39;97988.09;4911853;29;20223;-57
2022/04/07 10:59:24;;;;;;;0.63;0.40;;;;;;;15.84;84.77;97983.22;4918145;29;20541;-58
2022/04/07 11:01:53;;;;;;;0.73;0.40;;;;;;;15.81;85.27;97979.03;4919643;29;20665;-58
2022/04/07 11:04:18;;;;;;;0.40;0.40;;;;;;;15.90;85.15;97982.81;4932364;29;20194;-58
2022/04/07 11:07:13;;;;;;;0.60;0.33;;;;;;;16.04;85.44;97971.47;4920118;29;20195;-57
2022/04/07 11:09:47;;;;;;;0.80;0.40;;;;;;;16.26;84.62;97970.00;4916508;29;20576;-57
2022/04/07 11:12:39;;;;;;;2.10;0.50;;;;;;;16.34;84.58;97970.28;4923072;29;20189;-58
2022/04/07 11:15:05;;;;;;;1.30;0.40;;;;;;;16.30;84.10;97985.31;4920663;29;20654;-56
2022/04/07 11:17:33;;;;;;;3.00;0.47;;;;;;;16.21;83.72;97985.13;4921165;29;20212;-57
2022/04/07 11:20:02;;;;;;;2.00;0.40;;;;;;;16.04;84.24;97968.84;4911730;29;20610;-56
2022/04/07 11:22:49;;;;;;;0.90;0.47;;;;;;;15.69;84.94;97951.19;4917789;29;20183;-57
2022/04/07 11:25:19;;;;;;;1.37;0.50;;;;;;;15.59;86.56;97950.97;4913303;29;20641;-57
2022/04/07 11:27:45;;;;;;;1.53;0.50;;;;;;;15.57;86.57;97947.66;4921014;29;20667;-58
2022/04/07 11:30:14;;;;;;;1.63;0.50;;;;;;;15.47;85.96;97957.00;4920471;29;20680;-57